Time;durP1;ratioP1;P1;durP2;ratioP2;P2;SDS_P1;SDS_P2;PMS_P1;PMS_P2;Temp;Humidity;BMP_temperature;BMP_pressure;BME280_temperature;BME280_humidity;BME280_pressure;Samples;Min_cycle;Max_cycle;Signal;HPM_P1;HPM_P2
2022/08/03 00:01:55;;;;;;;2.53;1.08;;;23.90;99.30;;;;;;4064433;29;20495;-67
2022/08/03 00:03:55;;;;;;;2.08;1.20;;;23.90;99.10;;;;;;4064934;29;20391;-67
2022/08/03 00:05:56;;;;;;;2.05;1.00;;;23.80;99.50;;;;;;4063968;29;20032;-68
2022/08/03 00:07:57;;;;;;;3.33;0.90;;;23.80;99.20;;;;;;4065093;29;20032;-68
2022/08/03 00:09:57;;;;;;;1.35;0.90;;;23.80;99.20;;;;;;4064460;29;20029;-67
2022/08/03 00:11:58;;;;;;;2.70;0.98;;;23.70;98.80;;;;;;4064172;29;20075;-68
2022/08/03 00:13:59;;;;;;;1.50;1.20;;;23.70;98.60;;;;;;4064796;29;20024;-68
2022/08/03 00:16:00;;;;;;;1.08;0.70;;;23.60;98.80;;;;;;4064324;29;20048;-68
2022/08/03 00:18:00;;;;;;;1.38;0.98;;;23.50;99.50;;;;;;4064784;29;20506;-67
2022/08/03 00:20:01;;;;;;;1.13;1.02;;;23.50;99.60;;;;;;4064180;29;20092;-67
2022/08/03 00:22:01;;;;;;;1.52;0.85;;;23.50;99.60;;;;;;4064160;29;20024;-68
2022/08/03 00:24:02;;;;;;;1.73;1.00;;;23.50;99.60;;;;;;4064733;29;20092;-67
2022/08/03 00:26:03;;;;;;;1.75;1.20;;;23.50;99.90;;;;;;4064391;29;20487;-68
2022/08/03 00:28:04;;;;;;;1.73;1.10;;;23.50;99.90;;;;;;4064721;29;20055;-67
2022/08/03 00:30:06;;;;;;;1.27;0.90;;;23.50;99.90;;;;;;4063906;29;20043;-68
2022/08/03 00:32:06;;;;;;;1.02;0.82;;;23.50;99.70;;;;;;4064347;29;20063;-68
2022/08/03 00:34:07;;;;;;;1.70;1.17;;;23.40;99.60;;;;;;4064608;29;20033;-67
2022/08/03 00:36:07;;;;;;;1.00;0.85;;;23.40;99.90;;;;;;4063935;29;20028;-67
2022/08/03 00:38:08;;;;;;;1.45;1.20;;;23.40;99.90;;;;;;4064581;29;20033;-67
2022/08/03 00:40:13;;;;;;;1.48;1.02;;;23.40;99.90;;;;;;4063604;29;20140;-68
2022/08/03 00:42:15;;;;;;;1.67;0.90;;;23.40;99.90;;;;;;4064070;29;20092;-68
2022/08/03 00:44:15;;;;;;;3.45;1.15;;;23.40;99.90;;;;;;4064097;29;20467;-67
2022/08/03 00:46:16;;;;;;;2.47;0.95;;;23.40;99.90;;;;;;4063986;29;20032;-67
2022/08/03 00:48:16;;;;;;;3.45;1.10;;;23.40;99.90;;;;;;4064650;29;20036;-67
2022/08/03 00:50:18;;;;;;;2.00;1.00;;;23.40;99.90;;;;;;4063132;29;20048;-68
2022/08/03 00:52:19;;;;;;;3.40;1.17;;;23.40;99.90;;;;;;4063742;29;20031;-68
2022/08/03 00:54:20;;;;;;;2.63;1.00;;;23.40;99.90;;;;;;4064388;29;20261;-67
2022/08/03 00:56:21;;;;;;;2.65;1.10;;;23.40;99.90;;;;;;4063945;29;20032;-67
2022/08/03 00:58:23;;;;;;;2.45;0.98;;;23.30;99.90;;;;;;4064263;29;20032;-68
2022/08/03 01:00:25;;;;;;;1.30;1.00;;;23.30;99.90;;;;;;4044695;29;20037;-68
2022/08/03 01:02:27;;;;;;;1.05;0.90;;;23.30;99.90;;;;;;4049166;29;20060;-68
2022/08/03 01:04:28;;;;;;;1.48;1.15;;;23.30;99.90;;;;;;4048774;29;20102;-68
2022/08/03 01:06:51;;;;;;;1.50;1.02;;;23.30;99.90;;;;;;4060554;29;20036;-67
2022/08/03 01:09:21;;;;;;;1.73;1.05;;;23.20;99.90;;;;;;4051544;29;20476;-68
2022/08/03 01:11:57;;;;;;;1.40;1.30;;;23.20;99.90;;;;;;4047797;29;20033;-68
2022/08/03 01:14:08;;;;;;;4.30;1.23;;;23.20;99.90;;;;;;4049337;29;20128;-67
2022/08/03 01:16:18;;;;;;;3.42;1.30;;;23.10;99.90;;;;;;4047893;29;20116;-67
2022/08/03 01:18:30;;;;;;;2.10;1.05;;;23.10;99.90;;;;;;4046863;29;20480;-67
2022/08/03 01:20:34;;;;;;;2.40;1.50;;;23.10;99.90;;;;;;4048997;29;20036;-67
2022/08/03 01:23:09;;;;;;;1.80;1.10;;;23.10;99.90;;;;;;4047892;29;20037;-67
2022/08/03 01:25:21;;;;;;;2.03;1.02;;;23.10;99.90;;;;;;4046136;29;20492;-68
2022/08/03 01:27:33;;;;;;;1.67;1.13;;;23.10;99.90;;;;;;4048417;29;20039;-67
2022/08/03 01:30:03;;;;;;;1.85;1.13;;;23.10;99.90;;;;;;4063264;29;20419;-67
2022/08/03 01:32:18;;;;;;;5.72;1.13;;;23.00;99.90;;;;;;4058271;29;20096;-67
2022/08/03 01:34:22;;;;;;;2.15;1.25;;;23.00;99.90;;;;;;4063470;29;20451;-67
2022/08/03 01:36:28;;;;;;;1.55;1.08;;;23.00;99.90;;;;;;4063331;29;20036;-68
2022/08/03 01:38:34;;;;;;;1.92;1.10;;;23.00;99.90;;;;;;4063661;29;20068;-68
2022/08/03 01:40:38;;;;;;;2.40;1.13;;;23.00;99.90;;;;;;4063033;29;20479;-67
2022/08/03 01:45:37;;;;;;;1.75;1.17;;;22.90;99.90;;;;;;4049131;29;20127;-67
2022/08/03 01:47:39;;;;;;;1.70;1.27;;;23.00;99.90;;;;;;4048171;29;20029;-67
2022/08/03 01:49:43;;;;;;;1.27;1.00;;;23.00;99.90;;;;;;4047687;29;20071;-67
2022/08/03 01:51:46;;;;;;;1.60;1.00;;;22.90;99.90;;;;;;4062985;29;20553;-67
2022/08/03 01:53:48;;;;;;;;;;;22.90;99.90;;;;;;4064394;29;20036;-67
2022/08/03 01:55:53;;;;;;;0.90;0.90;;;22.90;99.90;;;;;;4046525;29;20385;-68
2022/08/03 01:57:57;;;;;;;2.00;0.90;;;22.80;99.90;;;;;;4063530;29;20036;-68
2022/08/03 02:00:00;;;;;;;2.88;1.00;;;22.80;99.90;;;;;;4063321;29;20070;-67
2022/08/03 02:02:02;;;;;;;2.10;1.10;;;22.80;99.90;;;;;;4062701;29;20470;-67
2022/08/03 02:04:05;;;;;;;3.42;1.17;;;22.80;99.90;;;;;;4063741;29;20036;-68
2022/08/03 02:06:06;;;;;;;1.50;1.02;;;22.70;99.90;;;;;;4063050;29;20043;-67
2022/08/03 02:08:09;;;;;;;2.80;0.90;;;22.80;99.90;;;;;;4063858;29;20036;-67
2022/08/03 02:10:13;;;;;;;2.40;1.20;;;22.70;99.90;;;;;;4062571;29;20028;-69
2022/08/03 02:12:14;;;;;;;1.85;1.10;;;22.70;99.90;;;;;;4063078;29;20056;-68
2022/08/03 02:14:16;;;;;;;1.50;1.08;;;22.70;99.90;;;;;;4065581;29;20032;-68
2022/08/03 02:16:18;;;;;;;1.33;0.80;;;22.60;99.90;;;;;;4073691;29;20497;-67
2022/08/03 02:18:20;;;;;;;1.05;0.93;;;22.60;99.90;;;;;;4072861;29;20036;-67
2022/08/03 02:20:21;;;;;;;1.42;0.90;;;22.60;99.90;;;;;;4070717;29;20048;-67
2022/08/03 02:22:23;;;;;;;2.47;0.95;;;22.60;99.90;;;;;;4072992;29;20036;-68
2022/08/03 02:24:24;;;;;;;2.17;1.20;;;22.60;99.90;;;;;;4071831;29;20040;-67
2022/08/03 02:26:28;;;;;;;2.35;1.25;;;22.60;99.90;;;;;;4073509;29;20028;-68
2022/08/03 02:28:33;;;;;;;1.20;1.10;;;22.60;99.90;;;;;;4073281;29;20062;-68
2022/08/03 02:30:37;;;;;;;3.78;1.48;;;22.60;99.90;;;;;;4072050;29;20043;-67
2022/08/03 02:32:41;;;;;;;2.70;1.35;;;22.60;99.90;;;;;;4058225;29;20116;-67
2022/08/03 02:34:46;;;;;;;2.30;1.58;;;22.60;99.90;;;;;;4072725;29;20040;-67
2022/08/03 02:36:50;;;;;;;3.22;1.50;;;22.60;99.90;;;;;;4072096;28;20459;-67
2022/08/03 02:38:54;;;;;;;2.70;1.33;;;22.60;99.90;;;;;;4073777;29;20130;-67
2022/08/03 02:40:57;;;;;;;1.58;1.38;;;22.60;99.90;;;;;;4070935;29;20036;-67
2022/08/03 02:43:04;;;;;;;2.47;1.80;;;22.60;99.90;;;;;;4074400;29;20050;-68
2022/08/03 02:45:08;;;;;;;2.47;1.45;;;22.60;99.90;;;;;;4073795;29;20028;-68
2022/08/03 02:47:10;;;;;;;2.13;1.30;;;22.50;99.90;;;;;;4074498;29;20036;-67
2022/08/03 02:49:15;;;;;;;2.17;1.10;;;22.50;99.90;;;;;;4069896;29;20083;-67
2022/08/03 02:51:18;;;;;;;1.40;1.10;;;22.50;99.90;;;;;;4070308;29;20043;-67
2022/08/03 02:53:21;;;;;;;1.48;1.05;;;22.50;99.90;;;;;;4072714;29;20107;-67
2022/08/03 02:55:24;;;;;;;1.50;0.90;;;22.50;99.90;;;;;;4071699;29;20090;-67
2022/08/03 02:57:29;;;;;;;1.48;1.05;;;22.50;99.90;;;;;;4071367;29;20032;-67
2022/08/03 02:59:31;;;;;;;1.33;1.20;;;22.50;99.90;;;;;;4072706;29;20044;-68
2022/08/03 03:01:32;;;;;;;4.85;1.42;;;22.50;99.90;;;;;;4072814;29;24907;-67
2022/08/03 03:03:34;;;;;;;1.42;1.23;;;22.40;99.90;;;;;;4071823;29;20478;-67
2022/08/03 03:05:36;;;;;;;2.85;1.13;;;22.40;99.90;;;;;;4072783;29;20115;-67
2022/08/03 03:07:37;;;;;;;3.95;1.42;;;22.40;99.90;;;;;;4071240;29;20040;-67
2022/08/03 03:09:37;;;;;;;1.95;1.20;;;22.50;99.90;;;;;;4071453;29;20039;-68
2022/08/03 03:11:41;;;;;;;1.80;1.50;;;22.40;99.90;;;;;;4072544;29;20490;-68
2022/08/03 03:13:43;;;;;;;2.92;1.52;;;22.40;99.90;;;;;;4073305;29;20099;-68
2022/08/03 03:15:44;;;;;;;4.57;1.55;;;22.40;99.90;;;;;;4071546;29;20067;-67
2022/08/03 03:17:46;;;;;;;2.33;1.67;;;22.40;99.90;;;;;;4073296;29;20039;-68
2022/08/03 03:19:49;;;;;;;3.03;1.70;;;22.40;99.90;;;;;;4070713;29;20075;-67
2022/08/03 03:21:51;;;;;;;3.67;1.70;;;22.40;99.90;;;;;;4074139;29;20115;-67
2022/08/03 03:23:53;;;;;;;3.03;1.45;;;22.40;99.90;;;;;;4072397;29;20418;-67
2022/08/03 03:25:55;;;;;;;5.38;2.10;;;22.40;99.90;;;;;;4071369;29;20571;-68
2022/08/03 03:27:56;;;;;;;3.13;1.60;;;22.40;99.90;;;;;;4055228;29;20119;-67
2022/08/03 03:29:57;;;;;;;2.90;1.52;;;22.40;99.90;;;;;;4070115;29;20039;-67
2022/08/03 03:31:59;;;;;;;2.95;1.30;;;22.40;99.90;;;;;;4069413;29;20087;-67
2022/08/03 03:34:00;;;;;;;3.08;1.48;;;22.40;99.90;;;;;;4070712;29;20471;-67
2022/08/03 03:36:01;;;;;;;3.05;1.50;;;22.40;99.90;;;;;;4067328;29;20036;-67
2022/08/03 03:38:02;;;;;;;2.50;1.27;;;22.30;99.90;;;;;;4068711;29;20550;-67
2022/08/03 03:40:03;;;;;;;2.53;1.80;;;22.30;99.90;;;;;;4070408;29;20032;-68
2022/08/03 03:42:04;;;;;;;3.78;1.50;;;22.30;99.90;;;;;;4069859;29;20079;-67
2022/08/03 03:44:05;;;;;;;2.80;1.65;;;22.30;99.90;;;;;;4071788;29;20036;-67
2022/08/03 03:46:06;;;;;;;2.10;1.35;;;22.30;99.90;;;;;;4070917;29;20487;-67
2022/08/03 03:48:07;;;;;;;3.70;1.95;;;22.30;99.90;;;;;;4069831;29;20111;-67
2022/08/03 03:50:09;;;;;;;1.98;1.50;;;22.30;99.90;;;;;;4068160;29;20495;-69
2022/08/03 03:52:10;;;;;;;1.83;1.42;;;22.30;99.90;;;;;;4074291;29;20044;-67
2022/08/03 03:54:10;;;;;;;2.22;1.67;;;22.30;99.90;;;;;;4069662;29;20035;-67
2022/08/03 03:56:11;;;;;;;2.08;1.50;;;22.30;99.90;;;;;;4068815;29;20064;-68
2022/08/03 03:58:12;;;;;;;2.80;1.67;;;22.30;99.90;;;;;;4071255;29;20028;-67
2022/08/03 04:00:14;;;;;;;2.30;1.60;;;22.20;99.90;;;;;;4067024;29;20407;-67
2022/08/03 04:02:14;;;;;;;2.42;1.80;;;22.20;99.90;;;;;;4063897;29;20061;-67
2022/08/03 04:11:26;;;;;;;2.92;1.60;;;22.10;99.90;;;;;;4051782;29;20055;-67
2022/08/03 04:13:43;;;;;;;2.28;1.67;;;22.10;99.90;;;;;;4053841;29;20066;-68
2022/08/03 04:15:45;;;;;;;2.10;1.67;;;22.10;99.90;;;;;;4057833;29;20135;-68
2022/08/03 04:17:47;;;;;;;4.38;1.55;;;22.10;99.90;;;;;;4068447;29;20484;-67
2022/08/03 04:19:51;;;;;;;5.43;2.28;;;22.00;99.90;;;;;;4068749;29;20090;-67
2022/08/03 04:21:56;;;;;;;3.55;1.92;;;22.00;99.90;;;;;;4068266;29;20415;-68
2022/08/03 04:24:00;;;;;;;4.63;2.30;;;22.00;99.90;;;;;;4069849;29;20122;-67
2022/08/03 04:26:02;;;;;;;2.60;1.70;;;22.00;99.90;;;;;;4066415;29;20039;-68
2022/08/03 04:28:03;;;;;;;3.45;1.95;;;22.00;99.90;;;;;;4067523;29;20128;-67
2022/08/03 04:30:06;;;;;;;3.10;1.95;;;21.90;99.90;;;;;;4061762;29;20440;-67
2022/08/03 04:32:07;;;;;;;2.88;2.03;;;21.90;99.90;;;;;;4055973;29;20032;-67
2022/08/03 04:34:08;;;;;;;2.80;1.67;;;21.90;99.90;;;;;;4057475;29;20037;-67
2022/08/03 04:36:14;;;;;;;2.42;1.90;;;21.90;99.90;;;;;;4048509;29;20276;-67
2022/08/03 04:38:18;;;;;;;3.38;2.13;;;21.90;99.90;;;;;;4048590;29;20069;-68
2022/08/03 04:40:26;;;;;;;2.17;1.73;;;21.80;99.90;;;;;;4047860;29;20033;-68
2022/08/03 04:42:29;;;;;;;4.20;2.15;;;21.80;99.90;;;;;;4048403;29;20059;-67
2022/08/03 04:44:34;;;;;;;2.78;1.80;;;21.70;99.90;;;;;;4048280;29;20041;-67
2022/08/03 04:46:38;;;;;;;2.42;1.65;;;21.70;99.90;;;;;;4049086;29;20071;-67
2022/08/03 04:48:39;;;;;;;4.05;1.80;;;21.70;99.90;;;;;;4049648;29;20044;-67
2022/08/03 04:50:41;;;;;;;5.22;2.45;;;21.70;99.90;;;;;;4048329;29;20032;-67
2022/08/03 04:52:42;;;;;;;5.00;2.13;;;21.70;99.90;;;;;;4047594;29;20706;-67
2022/08/03 04:54:44;;;;;;;2.90;2.03;;;21.70;99.90;;;;;;4048842;29;20427;-68
2022/08/03 04:56:44;;;;;;;2.70;1.92;;;21.70;99.90;;;;;;4050534;29;20479;-67
2022/08/03 04:58:45;;;;;;;2.80;1.70;;;21.80;99.90;;;;;;4047138;29;20036;-67
2022/08/03 05:00:49;;;;;;;3.47;2.03;;;21.70;99.90;;;;;;4049115;29;20048;-67
2022/08/03 05:02:50;;;;;;;4.82;2.28;;;21.70;99.90;;;;;;4047865;29;20127;-67
2022/08/03 05:04:51;;;;;;;4.15;2.00;;;21.80;99.90;;;;;;4048584;29;20036;-65
2022/08/03 05:06:51;;;;;;;3.95;2.40;;;21.80;99.90;;;;;;4048323;29;20036;-65
2022/08/03 05:08:52;;;;;;;3.28;1.92;;;21.80;99.90;;;;;;4048287;29;20055;-66
2022/08/03 05:10:52;;;;;;;2.67;1.90;;;21.80;99.90;;;;;;4062346;29;20032;-66
2022/08/03 05:12:53;;;;;;;2.30;1.65;;;21.80;99.90;;;;;;4047745;29;20043;-66
2022/08/03 05:14:54;;;;;;;3.75;2.17;;;21.80;99.90;;;;;;4049059;29;20088;-65
2022/08/03 05:16:55;;;;;;;6.63;2.35;;;21.80;99.90;;;;;;4052647;29;20049;-65
2022/08/03 05:18:56;;;;;;;5.20;2.00;;;21.80;99.90;;;;;;4047283;29;20044;-65
2022/08/03 05:20:57;;;;;;;2.47;2.00;;;21.90;99.90;;;;;;4047633;29;20029;-66
2022/08/03 05:23:00;;;;;;;6.57;1.83;;;21.90;99.90;;;;;;4047120;29;20033;-65
2022/08/03 05:25:01;;;;;;;;;;;21.90;99.90;;;;;;4049105;29;20039;-65
2022/08/03 05:27:01;;;;;;;3.53;1.98;;;22.00;99.90;;;;;;4047791;29;19911;-65
2022/08/03 05:29:02;;;;;;;5.25;2.05;;;21.90;99.90;;;;;;4044380;29;20056;-65
2022/08/03 05:31:03;;;;;;;3.20;1.98;;;22.00;99.90;;;;;;4045890;29;20056;-65
2022/08/03 05:33:03;;;;;;;9.70;2.55;;;22.00;99.90;;;;;;4054209;29;20090;-65
2022/08/03 05:35:05;;;;;;;3.83;2.17;;;22.10;99.90;;;;;;4063863;29;20452;-68
2022/08/03 05:37:06;;;;;;;5.82;2.50;;;22.00;99.90;;;;;;4061877;29;20547;-65
2022/08/03 05:39:06;;;;;;;4.95;2.70;;;22.10;99.90;;;;;;4062522;29;20051;-65
2022/08/03 05:41:07;;;;;;;7.32;2.63;;;22.10;99.90;;;;;;4056068;29;20051;-66
2022/08/03 05:43:07;;;;;;;3.20;2.03;;;22.10;99.90;;;;;;4048005;29;20033;-65
2022/08/03 05:45:17;;;;;;;4.80;2.63;;;22.10;99.90;;;;;;4046713;29;20120;-66
2022/08/03 05:47:17;;;;;;;6.55;2.40;;;22.20;99.90;;;;;;4046050;29;20033;-65
2022/08/03 05:49:18;;;;;;;5.40;2.53;;;22.20;99.90;;;;;;4049054;29;20051;-65
2022/08/03 05:51:19;;;;;;;4.22;2.17;;;22.20;99.90;;;;;;4050469;29;20028;-65
2022/08/03 05:53:20;;;;;;;5.68;2.45;;;22.30;99.90;;;;;;4050788;29;20075;-66
2022/08/03 05:55:20;;;;;;;6.63;2.50;;;22.30;99.90;;;;;;4050919;29;20031;-66
2022/08/03 05:57:21;;;;;;;8.43;2.08;;;22.30;99.90;;;;;;4064074;29;20092;-66
2022/08/03 05:59:21;;;;;;;3.35;2.20;;;22.40;99.90;;;;;;4056721;29;20028;-65
2022/08/03 06:01:22;;;;;;;5.10;2.83;;;22.40;99.90;;;;;;4050609;29;20037;-65
2022/08/03 06:03:22;;;;;;;3.88;2.58;;;22.40;99.90;;;;;;4050618;29;20032;-63
2022/08/03 06:05:25;;;;;;;4.15;2.40;;;22.50;99.90;;;;;;4050464;29;20051;-66
2022/08/03 06:07:26;;;;;;;5.05;2.35;;;22.50;99.90;;;;;;4050656;29;20459;-65
2022/08/03 06:09:28;;;;;;;3.17;1.80;;;22.60;99.90;;;;;;4050792;29;20131;-66
2022/08/03 06:11:29;;;;;;;4.97;2.40;;;22.60;99.90;;;;;;4064350;29;20051;-66
2022/08/03 06:13:29;;;;;;;3.63;2.35;;;22.60;99.90;;;;;;4050707;29;20032;-66
2022/08/03 06:15:32;;;;;;;3.42;2.10;;;22.70;99.90;;;;;;4050647;29;20083;-65
2022/08/03 06:17:32;;;;;;;4.03;2.15;;;22.70;99.90;;;;;;4051214;29;20040;-65
2022/08/03 06:19:33;;;;;;;4.97;2.83;;;22.80;99.90;;;;;;4050474;29;20032;-66
2022/08/03 06:21:33;;;;;;;6.35;2.30;;;22.80;99.90;;;;;;4050122;29;20116;-65
2022/08/03 06:23:34;;;;;;;5.95;2.20;;;22.90;99.90;;;;;;4054018;29;20028;-65
2022/08/03 06:25:35;;;;;;;3.42;2.40;;;23.10;99.90;;;;;;4051029;29;20060;-66
2022/08/03 06:27:38;;;;;;;8.25;3.08;;;23.30;99.90;;;;;;4051317;29;20039;-65
2022/08/03 06:29:39;;;;;;;4.03;2.22;;;23.70;99.90;;;;;;4050547;29;20037;-66
2022/08/03 06:31:39;;;;;;;7.75;2.47;;;24.00;99.90;;;;;;4052588;29;20124;-66
2022/08/03 06:33:40;;;;;;;3.67;1.88;;;24.50;99.90;;;;;;4054778;29;20029;-66
2022/08/03 06:35:41;;;;;;;6.63;2.25;;;24.90;99.90;;;;;;4050422;29;20547;-67
2022/08/03 06:37:46;;;;;;;3.15;2.00;;;25.30;99.90;;;;;;4050927;29;20055;-66
2022/08/03 06:39:47;;;;;;;5.88;2.10;;;25.70;99.90;;;;;;4064927;29;20534;-67
2022/08/03 06:41:47;;;;;;;4.50;1.98;;;26.20;99.90;;;;;;4065521;29;20021;-66
2022/08/03 06:43:48;;;;;;;3.67;2.10;;;26.60;99.90;;;;;;4066443;29;20040;-66
2022/08/03 06:45:48;;;;;;;4.72;2.10;;;26.80;99.90;;;;;;4066259;29;20032;-67
2022/08/03 06:48:25;;;;;;;2.70;1.80;;;27.20;99.00;;;;;;4068339;29;20040;-67
2022/08/03 06:50:25;;;;;;;3.28;1.70;;;27.50;98.80;;;;;;4068863;29;20064;-67
2022/08/03 06:52:26;;;;;;;6.57;2.13;;;27.90;97.40;;;;;;4071649;29;20510;-66
2022/08/03 06:54:26;;;;;;;5.95;2.40;;;28.20;97.10;;;;;;4073209;29;20490;-66
2022/08/03 06:56:27;;;;;;;2.33;1.63;;;28.50;96.00;;;;;;4073113;29;20128;-67
2022/08/03 06:58:28;;;;;;;3.70;2.25;;;28.70;96.20;;;;;;4073892;29;20036;-68
2022/08/03 07:00:29;;;;;;;5.50;2.20;;;28.90;95.40;;;;;;4067591;29;20042;-67
2022/08/03 07:02:30;;;;;;;2.20;1.60;;;29.10;95.10;;;;;;4071854;29;20082;-67
2022/08/03 07:04:30;;;;;;;3.67;2.03;;;29.30;95.20;;;;;;4074093;29;20123;-67
2022/08/03 07:06:31;;;;;;;3.58;2.00;;;29.40;94.70;;;;;;4073051;29;20044;-67
2022/08/03 07:08:31;;;;;;;3.58;2.10;;;29.50;93.70;;;;;;4072202;29;20031;-67
2022/08/03 07:10:32;;;;;;;4.97;1.90;;;29.60;93.40;;;;;;4069458;29;20499;-67
2022/08/03 07:12:33;;;;;;;3.10;1.88;;;29.60;93.30;;;;;;4072383;29;20048;-68
2022/08/03 07:14:34;;;;;;;5.55;2.70;;;29.70;93.30;;;;;;4073636;29;20041;-67
2022/08/03 07:16:35;;;;;;;1.83;1.50;;;29.60;92.80;;;;;;4070123;29;20032;-67
2022/08/03 07:18:38;;;;;;;4.57;2.17;;;29.60;93.00;;;;;;4072763;29;20141;-67
2022/08/03 07:20:39;;;;;;;4.93;2.10;;;29.70;92.90;;;;;;4068837;29;20107;-67
2022/08/03 07:22:40;;;;;;;5.32;1.73;;;29.60;92.90;;;;;;4074134;29;20510;-68
2022/08/03 07:24:40;;;;;;;4.55;1.90;;;29.70;92.90;;;;;;4068442;29;20083;-67
2022/08/03 07:26:41;;;;;;;5.90;2.00;;;29.70;92.80;;;;;;4071989;29;20127;-68
2022/08/03 07:28:42;;;;;;;3.88;1.80;;;29.60;92.60;;;;;;4071486;29;20135;-67
2022/08/03 07:30:42;;;;;;;7.05;2.05;;;29.60;92.80;;;;;;4071574;29;20034;-67
2022/08/03 07:32:43;;;;;;;2.65;1.63;;;29.70;93.10;;;;;;4071348;29;20038;-67
2022/08/03 07:34:43;;;;;;;3.60;1.65;;;29.70;92.70;;;;;;4072742;29;20068;-68
2022/08/03 07:36:44;;;;;;;2.63;1.50;;;29.70;92.50;;;;;;4071457;29;20029;-67
2022/08/03 07:38:44;;;;;;;3.60;1.90;;;29.80;92.20;;;;;;4072031;29;20102;-67
2022/08/03 07:40:45;;;;;;;4.22;1.77;;;29.80;91.70;;;;;;4067937;29;21677;-68
2022/08/03 07:42:46;;;;;;;4.05;2.00;;;29.80;92.50;;;;;;4071804;29;20040;-68
2022/08/03 07:44:46;;;;;;;4.03;1.70;;;29.80;92.30;;;;;;4072940;29;20039;-67
2022/08/03 07:46:47;;;;;;;4.25;2.00;;;29.80;92.50;;;;;;4072560;29;20034;-67
2022/08/03 07:48:47;;;;;;;5.40;1.60;;;29.80;92.00;;;;;;4068239;29;20414;-67
2022/08/03 07:50:48;;;;;;;4.18;1.92;;;29.80;91.90;;;;;;4070178;29;20096;-67
2022/08/03 07:52:51;;;;;;;5.75;1.85;;;29.80;91.90;;;;;;4073694;29;20060;-68
2022/08/03 07:54:52;;;;;;;3.03;1.60;;;29.80;91.70;;;;;;4053032;29;20041;-68
2022/08/03 07:56:52;;;;;;;4.15;1.85;;;29.90;91.80;;;;;;4071401;29;20038;-67
2022/08/03 07:58:54;;;;;;;3.42;1.63;;;29.90;91.50;;;;;;4070166;29;20157;-68
2022/08/03 08:00:54;;;;;;;4.07;2.17;;;29.90;91.90;;;;;;4072763;29;20152;-67
2022/08/03 08:02:55;;;;;;;4.45;1.70;;;29.80;91.80;;;;;;4071485;29;20036;-68
2022/08/03 08:04:56;;;;;;;1.70;1.40;;;29.90;92.30;;;;;;4072349;29;20040;-66
2022/08/03 08:06:56;;;;;;;4.75;1.85;;;30.00;92.50;;;;;;4071493;29;20036;-67
2022/08/03 08:09:00;;;;;;;3.72;1.48;;;30.00;92.40;;;;;;4070741;29;20048;-67
2022/08/03 08:11:04;;;;;;;4.95;1.88;;;30.10;92.10;;;;;;4069981;29;20046;-68
2022/08/03 08:13:04;;;;;;;2.83;1.55;;;30.10;91.40;;;;;;4071359;29;20523;-67
2022/08/03 08:15:06;;;;;;;4.85;1.50;;;30.20;90.90;;;;;;4066341;29;20044;-68
2022/08/03 08:17:06;;;;;;;2.55;1.35;;;30.10;90.10;;;;;;4064635;29;20382;-67
2022/08/03 08:19:07;;;;;;;3.28;1.58;;;30.10;90.10;;;;;;4069640;29;20036;-67
2022/08/03 08:21:09;;;;;;;4.85;1.80;;;30.10;89.50;;;;;;4071111;29;20570;-67
2022/08/03 08:23:09;;;;;;;7.37;2.13;;;30.10;90.50;;;;;;4086840;28;20038;-67
2022/08/03 08:25:10;;;;;;;6.72;1.60;;;30.20;90.20;;;;;;4072071;29;20268;-68
2022/08/03 08:27:10;;;;;;;3.95;1.60;;;30.20;90.50;;;;;;4069618;29;20436;-67
2022/08/03 08:29:11;;;;;;;4.03;2.00;;;30.10;89.60;;;;;;4069209;29;20047;-67
2022/08/03 08:31:12;;;;;;;2.72;1.88;;;30.20;89.70;;;;;;4063606;29;20044;-68
2022/08/03 08:33:13;;;;;;;5.82;2.30;;;30.20;90.40;;;;;;4067033;29;20052;-67
2022/08/03 08:35:13;;;;;;;3.47;1.75;;;30.20;90.60;;;;;;4061784;29;20130;-68
2022/08/03 08:37:14;;;;;;;6.55;2.00;;;30.30;90.50;;;;;;4064382;29;20051;-67
2022/08/03 08:39:15;;;;;;;2.08;1.40;;;30.30;88.60;;;;;;4062581;29;20100;-67
2022/08/03 08:41:16;;;;;;;4.50;1.80;;;30.30;90.50;;;;;;4060881;29;20130;-67
2022/08/03 08:43:16;;;;;;;5.00;2.08;;;30.40;90.80;;;;;;4062321;29;20410;-68
2022/08/03 08:45:18;;;;;;;2.67;1.30;;;30.30;88.90;;;;;;4071423;29;20036;-68
2022/08/03 08:47:20;;;;;;;4.07;1.53;;;30.30;89.30;;;;;;4071909;29;20032;-66
2022/08/03 08:49:24;;;;;;;2.33;1.35;;;30.20;88.60;;;;;;4069353;29;20056;-67
2022/08/03 08:51:29;;;;;;;6.22;1.23;;;30.30;90.00;;;;;;4070977;29;20403;-67
2022/08/03 08:53:32;;;;;;;2.55;1.23;;;30.30;89.50;;;;;;4073620;29;20112;-67
2022/08/03 08:55:34;;;;;;;2.25;1.33;;;30.30;87.80;;;;;;4067182;29;20066;-67
2022/08/03 08:57:44;;;;;;;4.20;1.38;;;30.30;87.90;;;;;;4073200;29;20134;-67
2022/08/03 08:59:44;;;;;;;2.97;1.25;;;30.30;88.20;;;;;;4065234;29;20051;-67
2022/08/03 09:01:45;;;;;;;2.53;1.40;;;30.40;88.80;;;;;;4070463;29;20035;-67
2022/08/03 09:03:46;;;;;;;2.70;1.20;;;30.40;87.50;;;;;;4054704;29;20044;-67
2022/08/03 09:05:48;;;;;;;3.00;1.23;;;30.30;87.00;;;;;;4070356;29;20495;-67
2022/08/03 09:07:48;;;;;;;2.80;1.25;;;30.30;87.10;;;;;;4071603;29;20047;-67
2022/08/03 09:09:49;;;;;;;1.92;0.88;;;30.30;85.90;;;;;;4067097;29;20044;-68
2022/08/03 09:11:50;;;;;;;1.35;1.00;;;30.30;87.40;;;;;;4067221;29;20435;-67
2022/08/03 09:13:50;;;;;;;2.90;0.95;;;30.40;87.50;;;;;;4072690;29;20048;-67
2022/08/03 09:16:12;;;;;;;3.05;1.48;;;30.50;87.70;;;;;;4069665;29;20034;-67
2022/08/03 09:18:26;;;;;;;2.58;1.42;;;30.40;87.00;;;;;;4067668;29;20114;-67
2022/08/03 09:20:35;;;;;;;3.38;1.52;;;30.50;85.30;;;;;;4061716;29;20048;-66
2022/08/03 09:23:00;;;;;;;3.75;1.83;;;30.60;86.30;;;;;;4043151;29;20049;-67
2022/08/03 09:25:04;;;;;;;3.25;1.33;;;30.60;84.60;;;;;;4063338;29;20032;-67
2022/08/03 09:27:10;;;;;;;3.65;1.05;;;30.60;85.30;;;;;;4063070;29;20076;-67
2022/08/03 09:29:10;;;;;;;2.65;1.30;;;30.60;86.20;;;;;;4062779;29;20471;-67
2022/08/03 09:31:11;;;;;;;3.45;1.20;;;30.70;85.00;;;;;;4060028;29;20074;-67
2022/08/03 09:33:15;;;;;;;3.50;1.00;;;30.70;85.30;;;;;;4062891;29;20454;-68
2022/08/03 09:35:15;;;;;;;1.23;1.02;;;30.70;85.10;;;;;;4045994;29;20085;-68
2022/08/03 09:37:19;;;;;;;3.92;1.20;;;30.70;83.60;;;;;;4062583;29;20056;-67
2022/08/03 09:39:26;;;;;;;5.55;1.83;;;30.70;83.40;;;;;;4060470;29;20372;-67
2022/08/03 09:41:26;;;;;;;1.55;1.10;;;30.70;83.80;;;;;;4062258;29;20036;-69
2022/08/03 09:43:44;;;;;;;2.15;1.05;;;30.60;81.90;;;;;;4063006;29;20062;-67
2022/08/03 09:45:44;;;;;;;4.38;1.38;;;30.70;86.60;;;;;;4062387;29;20104;-67
2022/08/03 09:47:45;;;;;;;1.63;1.00;;;30.80;85.20;;;;;;4063502;29;20495;-67
2022/08/03 09:50:00;;;;;;;5.07;1.15;;;30.80;84.70;;;;;;4061661;29;20059;-67
2022/08/03 09:52:14;;;;;;;1.92;1.00;;;30.80;85.10;;;;;;4059587;29;20551;-67
2022/08/03 09:54:29;;;;;;;2.58;1.35;;;30.90;82.10;;;;;;4064551;29;20054;-67
2022/08/03 09:56:39;;;;;;;3.42;1.25;;;30.90;82.30;;;;;;4061487;29;20052;-67
2022/08/03 09:58:45;;;;;;;2.80;1.13;;;30.80;82.00;;;;;;4061447;29;20395;-67
2022/08/03 10:01:03;;;;;;;3.58;1.52;;;30.80;82.80;;;;;;4061032;29;20127;-68
2022/08/03 10:03:04;;;;;;;2.47;1.40;;;30.90;83.20;;;;;;4062114;29;20040;-67
2022/08/03 10:05:07;;;;;;;4.90;1.13;;;30.90;82.80;;;;;;4062965;29;20032;-70
2022/08/03 10:07:09;;;;;;;2.58;1.00;;;30.90;81.70;;;;;;4062584;29;20032;-67
2022/08/03 10:09:15;;;;;;;3.88;1.10;;;30.90;82.10;;;;;;4061324;29;20044;-67
2022/08/03 10:11:30;;;;;;;2.05;1.27;;;30.90;81.80;;;;;;4061960;29;20433;-67
2022/08/03 10:13:31;;;;;;;4.13;1.20;;;31.00;83.50;;;;;;4062077;29;20045;-67
2022/08/03 10:15:32;;;;;;;2.58;0.95;;;31.00;84.40;;;;;;4062312;29;20059;-67
2022/08/03 10:17:33;;;;;;;1.98;1.15;;;31.00;84.00;;;;;;4061885;29;20558;-66
2022/08/03 10:19:33;;;;;;;2.60;1.20;;;31.10;85.40;;;;;;4062414;29;20033;-68
2022/08/03 10:21:39;;;;;;;3.13;1.35;;;31.20;82.50;;;;;;4061047;29;20491;-66
2022/08/03 10:23:40;;;;;;;2.35;1.13;;;31.20;83.50;;;;;;4060209;29;20594;-67
2022/08/03 10:25:45;;;;;;;3.70;1.13;;;31.30;84.80;;;;;;4061914;29;20056;-67
2022/08/03 10:27:49;;;;;;;2.38;1.10;;;31.30;82.20;;;;;;4062582;29;20652;-67
2022/08/03 10:29:59;;;;;;;2.33;1.00;;;31.40;84.10;;;;;;4061803;29;20379;-67
2022/08/03 10:32:03;;;;;;;3.05;0.90;;;31.40;83.80;;;;;;4060489;29;20037;-67
2022/08/03 10:34:11;;;;;;;1.75;0.90;;;31.40;82.60;;;;;;4063430;29;20040;-67
2022/08/03 10:36:13;;;;;;;4.00;1.08;;;31.50;82.20;;;;;;4065280;29;20104;-67
2022/08/03 10:38:19;;;;;;;2.90;1.00;;;31.50;81.80;;;;;;4065456;29;20487;-66
2022/08/03 10:40:22;;;;;;;2.72;0.82;;;31.50;82.70;;;;;;4063157;29;20120;-67
2022/08/03 10:42:25;;;;;;;1.52;0.80;;;31.50;82.40;;;;;;4065182;29;20032;-67
2022/08/03 10:44:37;;;;;;;1.45;0.73;;;31.60;84.80;;;;;;4048951;29;20460;-67
2022/08/03 10:46:39;;;;;;;2.13;0.98;;;31.60;83.20;;;;;;4060259;29;20458;-67
2022/08/03 10:48:40;;;;;;;2.03;1.10;;;31.60;83.40;;;;;;4062822;29;20098;-67
2022/08/03 10:50:42;;;;;;;4.05;1.02;;;31.70;80.60;;;;;;4064909;29;20706;-67
2022/08/03 10:53:01;;;;;;;1.30;1.02;;;31.60;80.20;;;;;;4065152;29;20115;-67